Hale Center, Texas
Current Conditions -  °F | °C
As of 3:35 AM on Thursday 23 Oct 2014 (Local Time) from KPVW Reporting Station
Haze Haze  
Wind Chill: 57°   Ceiling: 200
Heat Index: 57°   Visibility: 2.5mi
Dew Point: 56°   Wind: 6mph
Humidity: 97%   Direction: 210°SSW
Pressure: 30.12"   Gusts: NA
Location:  34.06°N, 101.84°W
Report Text: KPVW 230835Z AUTO 21005KT 2 1/2SM BR OVC002 14/14 A3012 RMK AO2 T01410136
Loading
Personal Weather Stations






























Interactive Weather Map
Tropical Storm Tracking
New forecast layout! Learn more

10-Day Weather Forecast

Advertisements
Track Severe Weather on mobile